sensor_id;sensor_type;location;lat;lon;timestamp;P1;durP1;ratioP1;P2;durP2;ratioP2
16640;SDS011;8434;47.990;7.880;2023-02-01T00:02:09;5.23;;;3.50;;
16640;SDS011;8434;47.990;7.880;2023-02-01T00:04:54;4.57;;;3.30;;
16640;SDS011;8434;47.990;7.880;2023-02-01T00:07:39;5.20;;;3.53;;
16640;SDS011;8434;47.990;7.880;2023-02-01T00:10:24;4.50;;;3.23;;
16640;SDS011;8434;47.990;7.880;2023-02-01T00:13:09;6.57;;;3.73;;
16640;SDS011;8434;47.990;7.880;2023-02-01T00:15:54;5.93;;;4.30;;
16640;SDS011;8434;47.990;7.880;2023-02-01T00:18:40;6.23;;;3.97;;
16640;SDS011;8434;47.990;7.880;2023-02-01T00:21:26;4.83;;;3.20;;
16640;SDS011;8434;47.990;7.880;2023-02-01T00:24:11;3.30;;;2.57;;
16640;SDS011;8434;47.990;7.880;2023-02-01T00:26:56;4.33;;;3.30;;
16640;SDS011;8434;47.990;7.880;2023-02-01T00:29:41;4.47;;;2.90;;
16640;SDS011;8434;47.990;7.880;2023-02-01T00:32:26;4.37;;;3.07;;
16640;SDS011;8434;47.990;7.880;2023-02-01T00:35:12;4.30;;;3.27;;
16640;SDS011;8434;47.990;7.880;2023-02-01T00:37:57;4.03;;;2.70;;
16640;SDS011;8434;47.990;7.880;2023-02-01T00:40:43;4.97;;;3.23;;
16640;SDS011;8434;47.990;7.880;2023-02-01T00:43:28;3.50;;;2.73;;
16640;SDS011;8434;47.990;7.880;2023-02-01T00:46:16;4.97;;;2.37;;
16640;SDS011;8434;47.990;7.880;2023-02-01T00:49:01;3.50;;;2.83;;
16640;SDS011;8434;47.990;7.880;2023-02-01T00:51:48;6.60;;;3.03;;
16640;SDS011;8434;47.990;7.880;2023-02-01T00:54:33;4.80;;;3.13;;
16640;SDS011;8434;47.990;7.880;2023-02-01T00:57:20;4.07;;;2.53;;
16640;SDS011;8434;47.990;7.880;2023-02-01T01:00:05;5.53;;;3.20;;
16640;SDS011;8434;47.990;7.880;2023-02-01T01:02:51;4.47;;;2.80;;
16640;SDS011;8434;47.990;7.880;2023-02-01T01:05:36;3.00;;;2.40;;
16640;SDS011;8434;47.990;7.880;2023-02-01T01:08:22;5.83;;;2.57;;
16640;SDS011;8434;47.990;7.880;2023-02-01T01:11:07;4.27;;;2.83;;
16640;SDS011;8434;47.990;7.880;2023-02-01T01:13:53;4.43;;;2.47;;
16640;SDS011;8434;47.990;7.880;2023-02-01T01:16:39;7.27;;;3.07;;
16640;SDS011;8434;47.990;7.880;2023-02-01T01:19:24;4.57;;;2.33;;
16640;SDS011;8434;47.990;7.880;2023-02-01T01:22:09;3.87;;;2.50;;
16640;SDS011;8434;47.990;7.880;2023-02-01T01:24:55;3.60;;;2.57;;
16640;SDS011;8434;47.990;7.880;2023-02-01T01:27:40;5.43;;;2.87;;
16640;SDS011;8434;47.990;7.880;2023-02-01T01:30:25;7.67;;;3.13;;
16640;SDS011;8434;47.990;7.880;2023-02-01T01:33:13;3.33;;;2.37;;
16640;SDS011;8434;47.990;7.880;2023-02-01T01:35:58;4.40;;;2.77;;
16640;SDS011;8434;47.990;7.880;2023-02-01T01:38:43;5.13;;;2.90;;
16640;SDS011;8434;47.990;7.880;2023-02-01T01:41:30;5.80;;;2.80;;
16640;SDS011;8434;47.990;7.880;2023-02-01T01:47:21;6.67;;;2.53;;
16640;SDS011;8434;47.990;7.880;2023-02-01T01:50:07;4.97;;;2.67;;
16640;SDS011;8434;47.990;7.880;2023-02-01T01:52:52;3.50;;;2.30;;
16640;SDS011;8434;47.990;7.880;2023-02-01T01:55:39;3.37;;;2.60;;
16640;SDS011;8434;47.990;7.880;2023-02-01T01:58:29;4.43;;;2.83;;
16640;SDS011;8434;47.990;7.880;2023-02-01T02:01:16;4.07;;;2.30;;
16640;SDS011;8434;47.990;7.880;2023-02-01T02:04:01;3.90;;;2.40;;
16640;SDS011;8434;47.990;7.880;2023-02-01T02:06:47;3.23;;;2.50;;
16640;SDS011;8434;47.990;7.880;2023-02-01T02:09:33;4.30;;;2.83;;
16640;SDS011;8434;47.990;7.880;2023-02-01T02:12:18;2.80;;;2.23;;
16640;SDS011;8434;47.990;7.880;2023-02-01T02:15:05;3.73;;;2.20;;
16640;SDS011;8434;47.990;7.880;2023-02-01T02:17:52;2.73;;;2.40;;
16640;SDS011;8434;47.990;7.880;2023-02-01T02:20:44;3.73;;;2.70;;
16640;SDS011;8434;47.990;7.880;2023-02-01T02:23:45;3.93;;;2.50;;
16640;SDS011;8434;47.990;7.880;2023-02-01T02:26:59;3.43;;;2.50;;
16640;SDS011;8434;47.990;7.880;2023-02-01T02:36:01;4.57;;;2.37;;
16640;SDS011;8434;47.990;7.880;2023-02-01T02:38:52;3.80;;;2.43;;
16640;SDS011;8434;47.990;7.880;2023-02-01T02:41:42;3.17;;;1.87;;
16640;SDS011;8434;47.990;7.880;2023-02-01T02:44:49;3.60;;;2.30;;
16640;SDS011;8434;47.990;7.880;2023-02-01T02:47:54;3.80;;;2.20;;
16640;SDS011;8434;47.990;7.880;2023-02-01T02:50:41;3.20;;;2.23;;
16640;SDS011;8434;47.990;7.880;2023-02-01T02:53:48;2.63;;;2.20;;
16640;SDS011;8434;47.990;7.880;2023-02-01T02:56:53;2.83;;;2.27;;
16640;SDS011;8434;47.990;7.880;2023-02-01T02:59:59;3.97;;;2.33;;
16640;SDS011;8434;47.990;7.880;2023-02-01T03:03:03;3.40;;;2.40;;
16640;SDS011;8434;47.990;7.880;2023-02-01T03:06:08;6.33;;;3.07;;
16640;SDS011;8434;47.990;7.880;2023-02-01T03:08:58;4.17;;;2.47;;
16640;SDS011;8434;47.990;7.880;2023-02-01T03:11:43;3.97;;;2.07;;
16640;SDS011;8434;47.990;7.880;2023-02-01T03:14:50;3.70;;;2.57;;
16640;SDS011;8434;47.990;7.880;2023-02-01T03:17:38;3.53;;;2.57;;
16640;SDS011;8434;47.990;7.880;2023-02-01T03:20:24;3.70;;;2.07;;
16640;SDS011;8434;47.990;7.880;2023-02-01T03:23:10;3.10;;;2.23;;
16640;SDS011;8434;47.990;7.880;2023-02-01T03:25:58;4.17;;;2.23;;
16640;SDS011;8434;47.990;7.880;2023-02-01T03:28:45;3.27;;;2.10;;
16640;SDS011;8434;47.990;7.880;2023-02-01T03:31:33;4.27;;;2.73;;
16640;SDS011;8434;47.990;7.880;2023-02-01T03:34:18;3.63;;;2.60;;
16640;SDS011;8434;47.990;7.880;2023-02-01T03:37:03;3.60;;;2.77;;
16640;SDS011;8434;47.990;7.880;2023-02-01T03:39:52;4.07;;;2.53;;
16640;SDS011;8434;47.990;7.880;2023-02-01T03:42:40;4.10;;;2.90;;
16640;SDS011;8434;47.990;7.880;2023-02-01T03:45:27;4.07;;;3.10;;
16640;SDS011;8434;47.990;7.880;2023-02-01T03:48:14;3.07;;;2.43;;
16640;SDS011;8434;47.990;7.880;2023-02-01T03:51:00;4.07;;;3.10;;
16640;SDS011;8434;47.990;7.880;2023-02-01T03:53:46;6.37;;;3.37;;
16640;SDS011;8434;47.990;7.880;2023-02-01T03:56:32;5.07;;;3.00;;
16640;SDS011;8434;47.990;7.880;2023-02-01T03:59:22;8.90;;;3.27;;
16640;SDS011;8434;47.990;7.880;2023-02-01T04:02:08;6.53;;;3.33;;
16640;SDS011;8434;47.990;7.880;2023-02-01T04:04:53;8.50;;;3.67;;
16640;SDS011;8434;47.990;7.880;2023-02-01T04:07:39;4.33;;;3.27;;
16640;SDS011;8434;47.990;7.880;2023-02-01T04:10:24;4.93;;;3.53;;
16640;SDS011;8434;47.990;7.880;2023-02-01T04:13:09;6.43;;;4.40;;
16640;SDS011;8434;47.990;7.880;2023-02-01T04:15:56;6.17;;;3.43;;
16640;SDS011;8434;47.990;7.880;2023-02-01T04:18:41;6.07;;;3.60;;
16640;SDS011;8434;47.990;7.880;2023-02-01T04:21:26;4.30;;;3.10;;
16640;SDS011;8434;47.990;7.880;2023-02-01T04:24:11;6.10;;;3.47;;
16640;SDS011;8434;47.990;7.880;2023-02-01T04:26:56;4.73;;;3.27;;
16640;SDS011;8434;47.990;7.880;2023-02-01T04:29:41;3.70;;;2.77;;
16640;SDS011;8434;47.990;7.880;2023-02-01T04:32:29;3.43;;;2.83;;
16640;SDS011;8434;47.990;7.880;2023-02-01T04:35:15;5.07;;;3.07;;
16640;SDS011;8434;47.990;7.880;2023-02-01T04:38:01;5.10;;;3.60;;
16640;SDS011;8434;47.990;7.880;2023-02-01T04:40:47;4.27;;;2.73;;
16640;SDS011;8434;47.990;7.880;2023-02-01T04:43:32;5.60;;;3.73;;
16640;SDS011;8434;47.990;7.880;2023-02-01T04:46:17;4.33;;;2.83;;
16640;SDS011;8434;47.990;7.880;2023-02-01T04:49:03;5.43;;;3.53;;
16640;SDS011;8434;47.990;7.880;2023-02-01T04:51:48;4.47;;;3.00;;
16640;SDS011;8434;47.990;7.880;2023-02-01T04:54:34;4.43;;;2.80;;
16640;SDS011;8434;47.990;7.880;2023-02-01T04:57:19;5.40;;;2.47;;
16640;SDS011;8434;47.990;7.880;2023-02-01T05:00:05;2.63;;;2.10;;
16640;SDS011;8434;47.990;7.880;2023-02-01T05:02:50;3.63;;;2.10;;
16640;SDS011;8434;47.990;7.880;2023-02-01T05:05:37;4.43;;;2.30;;
16640;SDS011;8434;47.990;7.880;2023-02-01T05:08:22;3.07;;;2.57;;
16640;SDS011;8434;47.990;7.880;2023-02-01T05:11:08;2.50;;;2.07;;
16640;SDS011;8434;47.990;7.880;2023-02-01T05:14:14;5.37;;;2.33;;
16640;SDS011;8434;47.990;7.880;2023-02-01T05:16:58;3.23;;;2.00;;
16640;SDS011;8434;47.990;7.880;2023-02-01T05:19:43;4.33;;;2.10;;
16640;SDS011;8434;47.990;7.880;2023-02-01T05:22:29;3.47;;;2.37;;
16640;SDS011;8434;47.990;7.880;2023-02-01T05:25:14;5.23;;;2.70;;
16640;SDS011;8434;47.990;7.880;2023-02-01T05:27:59;3.90;;;2.00;;
16640;SDS011;8434;47.990;7.880;2023-02-01T05:30:44;3.37;;;2.40;;
16640;SDS011;8434;47.990;7.880;2023-02-01T05:33:28;3.07;;;2.10;;
16640;SDS011;8434;47.990;7.880;2023-02-01T05:36:13;4.07;;;2.53;;
16640;SDS011;8434;47.990;7.880;2023-02-01T05:39:00;4.30;;;2.73;;
16640;SDS011;8434;47.990;7.880;2023-02-01T05:41:44;4.73;;;2.70;;
16640;SDS011;8434;47.990;7.880;2023-02-01T05:44:29;4.37;;;2.87;;
16640;SDS011;8434;47.990;7.880;2023-02-01T05:47:14;5.00;;;2.67;;
16640;SDS011;8434;47.990;7.880;2023-02-01T05:49:59;3.13;;;2.23;;
16640;SDS011;8434;47.990;7.880;2023-02-01T05:52:44;4.83;;;2.23;;
16640;SDS011;8434;47.990;7.880;2023-02-01T05:55:31;4.33;;;2.60;;
16640;SDS011;8434;47.990;7.880;2023-02-01T05:58:16;2.70;;;2.10;;
16640;SDS011;8434;47.990;7.880;2023-02-01T06:01:01;3.53;;;2.80;;
16640;SDS011;8434;47.990;7.880;2023-02-01T06:03:45;5.07;;;2.93;;
16640;SDS011;8434;47.990;7.880;2023-02-01T06:06:30;5.67;;;3.13;;
16640;SDS011;8434;47.990;7.880;2023-02-01T06:09:15;3.23;;;2.27;;
16640;SDS011;8434;47.990;7.880;2023-02-01T06:12:02;8.80;;;2.40;;
16640;SDS011;8434;47.990;7.880;2023-02-01T06:14:46;3.60;;;2.50;;
16640;SDS011;8434;47.990;7.880;2023-02-01T06:17:31;5.70;;;2.90;;
16640;SDS011;8434;47.990;7.880;2023-02-01T06:20:16;2.43;;;1.80;;
16640;SDS011;8434;47.990;7.880;2023-02-01T06:23:01;3.27;;;1.93;;
16640;SDS011;8434;47.990;7.880;2023-02-01T06:25:48;2.20;;;1.77;;
16640;SDS011;8434;47.990;7.880;2023-02-01T06:28:34;2.57;;;1.60;;
16640;SDS011;8434;47.990;7.880;2023-02-01T06:31:20;2.63;;;1.70;;
16640;SDS011;8434;47.990;7.880;2023-02-01T06:34:05;3.13;;;1.80;;
16640;SDS011;8434;47.990;7.880;2023-02-01T06:36:50;1.70;;;1.37;;
16640;SDS011;8434;47.990;7.880;2023-02-01T06:39:35;3.60;;;2.00;;
16640;SDS011;8434;47.990;7.880;2023-02-01T06:42:20;1.73;;;1.40;;
16640;SDS011;8434;47.990;7.880;2023-02-01T06:45:07;2.77;;;1.77;;
16640;SDS011;8434;47.990;7.880;2023-02-01T06:47:52;1.20;;;1.10;;
16640;SDS011;8434;47.990;7.880;2023-02-01T06:50:37;2.10;;;1.17;;
16640;SDS011;8434;47.990;7.880;2023-02-01T06:53:22;1.67;;;1.10;;
16640;SDS011;8434;47.990;7.880;2023-02-01T06:56:08;1.00;;;0.90;;
16640;SDS011;8434;47.990;7.880;2023-02-01T06:58:53;1.77;;;1.13;;
16640;SDS011;8434;47.990;7.880;2023-02-01T07:01:39;1.87;;;1.27;;
16640;SDS011;8434;47.990;7.880;2023-02-01T07:04:24;2.20;;;1.10;;
16640;SDS011;8434;47.990;7.880;2023-02-01T07:07:09;2.10;;;1.27;;
16640;SDS011;8434;47.990;7.880;2023-02-01T07:09:56;1.20;;;1.10;;
16640;SDS011;8434;47.990;7.880;2023-02-01T07:12:40;1.87;;;1.10;;
16640;SDS011;8434;47.990;7.880;2023-02-01T07:15:25;0.80;;;0.80;;
16640;SDS011;8434;47.990;7.880;2023-02-01T07:18:12;0.90;;;0.90;;
16640;SDS011;8434;47.990;7.880;2023-02-01T07:20:57;1.60;;;1.13;;
16640;SDS011;8434;47.990;7.880;2023-02-01T07:23:43;1.23;;;1.10;;
16640;SDS011;8434;47.990;7.880;2023-02-01T07:26:28;2.37;;;1.30;;
16640;SDS011;8434;47.990;7.880;2023-02-01T07:29:12;2.27;;;1.10;;
16640;SDS011;8434;47.990;7.880;2023-02-01T07:31:57;2.53;;;1.40;;
16640;SDS011;8434;47.990;7.880;2023-02-01T07:34:45;1.57;;;1.30;;
16640;SDS011;8434;47.990;7.880;2023-02-01T07:37:30;2.03;;;1.23;;
16640;SDS011;8434;47.990;7.880;2023-02-01T07:40:15;2.30;;;1.07;;
16640;SDS011;8434;47.990;7.880;2023-02-01T07:43:02;2.13;;;1.60;;
16640;SDS011;8434;47.990;7.880;2023-02-01T07:45:50;2.37;;;1.70;;
16640;SDS011;8434;47.990;7.880;2023-02-01T07:48:35;2.77;;;1.47;;
16640;SDS011;8434;47.990;7.880;2023-02-01T07:51:22;2.57;;;1.67;;
16640;SDS011;8434;47.990;7.880;2023-02-01T07:54:07;3.40;;;1.80;;
16640;SDS011;8434;47.990;7.880;2023-02-01T07:56:52;2.90;;;1.67;;
16640;SDS011;8434;47.990;7.880;2023-02-01T07:59:36;1.90;;;1.70;;
16640;SDS011;8434;47.990;7.880;2023-02-01T08:02:43;2.13;;;1.40;;
16640;SDS011;8434;47.990;7.880;2023-02-01T08:05:28;3.87;;;2.10;;
16640;SDS011;8434;47.990;7.880;2023-02-01T08:08:14;3.90;;;1.80;;
16640;SDS011;8434;47.990;7.880;2023-02-01T08:10:59;3.17;;;1.57;;
16640;SDS011;8434;47.990;7.880;2023-02-01T08:13:44;1.90;;;1.57;;
16640;SDS011;8434;47.990;7.880;2023-02-01T08:16:29;2.23;;;1.37;;
16640;SDS011;8434;47.990;7.880;2023-02-01T08:19:14;2.97;;;1.53;;
16640;SDS011;8434;47.990;7.880;2023-02-01T08:21:59;2.80;;;1.93;;
16640;SDS011;8434;47.990;7.880;2023-02-01T08:24:48;3.20;;;1.80;;
16640;SDS011;8434;47.990;7.880;2023-02-01T08:27:33;3.10;;;1.70;;
16640;SDS011;8434;47.990;7.880;2023-02-01T08:30:19;2.63;;;1.70;;
16640;SDS011;8434;47.990;7.880;2023-02-01T08:33:04;2.80;;;1.47;;
16640;SDS011;8434;47.990;7.880;2023-02-01T08:35:50;2.40;;;1.60;;
16640;SDS011;8434;47.990;7.880;2023-02-01T08:38:36;2.43;;;1.77;;
16640;SDS011;8434;47.990;7.880;2023-02-01T08:41:22;3.27;;;1.70;;
16640;SDS011;8434;47.990;7.880;2023-02-01T08:44:07;3.20;;;1.90;;
16640;SDS011;8434;47.990;7.880;2023-02-01T08:46:52;4.53;;;1.50;;
16640;SDS011;8434;47.990;7.880;2023-02-01T08:49:37;2.00;;;1.30;;
16640;SDS011;8434;47.990;7.880;2023-02-01T08:52:22;2.17;;;1.40;;
16640;SDS011;8434;47.990;7.880;2023-02-01T08:55:08;1.37;;;0.97;;
16640;SDS011;8434;47.990;7.880;2023-02-01T08:57:54;2.13;;;1.07;;
16640;SDS011;8434;47.990;7.880;2023-02-01T09:00:40;1.50;;;1.40;;
16640;SDS011;8434;47.990;7.880;2023-02-01T09:03:25;2.33;;;1.40;;
16640;SDS011;8434;47.990;7.880;2023-02-01T09:06:11;2.17;;;1.50;;
16640;SDS011;8434;47.990;7.880;2023-02-01T09:08:56;2.80;;;1.37;;
16640;SDS011;8434;47.990;7.880;2023-02-01T09:11:41;3.53;;;1.40;;
16640;SDS011;8434;47.990;7.880;2023-02-01T09:14:27;2.40;;;1.40;;
16640;SDS011;8434;47.990;7.880;2023-02-01T09:17:12;1.80;;;1.27;;
16640;SDS011;8434;47.990;7.880;2023-02-01T09:19:58;2.23;;;1.50;;
16640;SDS011;8434;47.990;7.880;2023-02-01T09:22:43;3.43;;;1.77;;
16640;SDS011;8434;47.990;7.880;2023-02-01T09:25:28;1.53;;;1.40;;
16640;SDS011;8434;47.990;7.880;2023-02-01T09:28:13;2.17;;;1.63;;
16640;SDS011;8434;47.990;7.880;2023-02-01T09:31:00;1.83;;;1.67;;
16640;SDS011;8434;47.990;7.880;2023-02-01T09:33:45;2.53;;;2.10;;
16640;SDS011;8434;47.990;7.880;2023-02-01T09:36:30;2.13;;;1.70;;
16640;SDS011;8434;47.990;7.880;2023-02-01T09:39:15;2.00;;;1.80;;
16640;SDS011;8434;47.990;7.880;2023-02-01T09:42:04;3.30;;;2.30;;
16640;SDS011;8434;47.990;7.880;2023-02-01T09:45:03;4.03;;;2.03;;
16640;SDS011;8434;47.990;7.880;2023-02-01T09:47:53;2.80;;;1.80;;
16640;SDS011;8434;47.990;7.880;2023-02-01T09:50:39;2.43;;;1.77;;
16640;SDS011;8434;47.990;7.880;2023-02-01T09:53:28;3.80;;;1.90;;
16640;SDS011;8434;47.990;7.880;2023-02-01T09:56:15;2.90;;;2.30;;
16640;SDS011;8434;47.990;7.880;2023-02-01T09:59:04;1.97;;;1.67;;
16640;SDS011;8434;47.990;7.880;2023-02-01T10:01:54;2.63;;;1.80;;
16640;SDS011;8434;47.990;7.880;2023-02-01T10:04:40;3.40;;;2.10;;
16640;SDS011;8434;47.990;7.880;2023-02-01T10:07:27;3.63;;;2.40;;
16640;SDS011;8434;47.990;7.880;2023-02-01T10:10:17;3.47;;;2.90;;
16640;SDS011;8434;47.990;7.880;2023-02-01T10:13:09;4.13;;;2.70;;
16640;SDS011;8434;47.990;7.880;2023-02-01T10:16:01;3.73;;;2.37;;
16640;SDS011;8434;47.990;7.880;2023-02-01T10:18:52;4.17;;;2.50;;
16640;SDS011;8434;47.990;7.880;2023-02-01T10:21:45;6.20;;;2.90;;
16640;SDS011;8434;47.990;7.880;2023-02-01T10:24:36;5.10;;;2.60;;
16640;SDS011;8434;47.990;7.880;2023-02-01T10:27:22;6.17;;;2.97;;
16640;SDS011;8434;47.990;7.880;2023-02-01T10:30:14;4.07;;;2.47;;
16640;SDS011;8434;47.990;7.880;2023-02-01T10:33:01;3.53;;;2.67;;
16640;SDS011;8434;47.990;7.880;2023-02-01T10:35:52;4.37;;;2.50;;
16640;SDS011;8434;47.990;7.880;2023-02-01T10:38:39;3.87;;;2.57;;
16640;SDS011;8434;47.990;7.880;2023-02-01T10:41:29;6.00;;;3.47;;
16640;SDS011;8434;47.990;7.880;2023-02-01T10:44:15;4.23;;;3.20;;
16640;SDS011;8434;47.990;7.880;2023-02-01T10:47:01;5.80;;;3.10;;
16640;SDS011;8434;47.990;7.880;2023-02-01T10:49:48;4.97;;;3.07;;
16640;SDS011;8434;47.990;7.880;2023-02-01T10:52:36;4.53;;;2.80;;
16640;SDS011;8434;47.990;7.880;2023-02-01T10:55:33;8.37;;;3.73;;
16640;SDS011;8434;47.990;7.880;2023-02-01T10:58:19;4.47;;;2.87;;
16640;SDS011;8434;47.990;7.880;2023-02-01T11:01:04;4.90;;;3.10;;
16640;SDS011;8434;47.990;7.880;2023-02-01T11:03:52;5.17;;;3.10;;
16640;SDS011;8434;47.990;7.880;2023-02-01T11:06:38;5.07;;;3.33;;
16640;SDS011;8434;47.990;7.880;2023-02-01T11:09:24;7.50;;;3.67;;
16640;SDS011;8434;47.990;7.880;2023-02-01T11:12:22;5.70;;;3.33;;
16640;SDS011;8434;47.990;7.880;2023-02-01T11:15:13;9.17;;;3.13;;
16640;SDS011;8434;47.990;7.880;2023-02-01T11:18:12;5.90;;;3.03;;
16640;SDS011;8434;47.990;7.880;2023-02-01T11:20:58;3.20;;;2.63;;
16640;SDS011;8434;47.990;7.880;2023-02-01T11:23:44;9.37;;;3.30;;
16640;SDS011;8434;47.990;7.880;2023-02-01T11:26:30;8.07;;;3.17;;
16640;SDS011;8434;47.990;7.880;2023-02-01T11:29:18;8.40;;;3.10;;
16640;SDS011;8434;47.990;7.880;2023-02-01T11:32:06;6.40;;;2.80;;
16640;SDS011;8434;47.990;7.880;2023-02-01T11:34:53;8.07;;;3.20;;
16640;SDS011;8434;47.990;7.880;2023-02-01T11:37:40;7.90;;;3.17;;
16640;SDS011;8434;47.990;7.880;2023-02-01T11:40:26;6.87;;;3.33;;
16640;SDS011;8434;47.990;7.880;2023-02-01T11:43:14;8.33;;;2.70;;
16640;SDS011;8434;47.990;7.880;2023-02-01T11:46:02;9.27;;;3.40;;
16640;SDS011;8434;47.990;7.880;2023-02-01T11:48:47;5.50;;;2.77;;
16640;SDS011;8434;47.990;7.880;2023-02-01T11:51:39;7.50;;;3.53;;
16640;SDS011;8434;47.990;7.880;2023-02-01T11:54:31;8.70;;;3.73;;
16640;SDS011;8434;47.990;7.880;2023-02-01T11:57:22;6.63;;;3.13;;
16640;SDS011;8434;47.990;7.880;2023-02-01T12:00:23;7.40;;;3.40;;
16640;SDS011;8434;47.990;7.880;2023-02-01T12:06:18;6.17;;;3.03;;
16640;SDS011;8434;47.990;7.880;2023-02-01T12:09:08;6.77;;;3.30;;
16640;SDS011;8434;47.990;7.880;2023-02-01T12:11:58;7.53;;;3.67;;
16640;SDS011;8434;47.990;7.880;2023-02-01T12:14:54;9.13;;;3.90;;
16640;SDS011;8434;47.990;7.880;2023-02-01T12:17:42;8.00;;;3.67;;
16640;SDS011;8434;47.990;7.880;2023-02-01T12:20:42;5.93;;;2.90;;
16640;SDS011;8434;47.990;7.880;2023-02-01T12:23:40;9.30;;;2.80;;
16640;SDS011;8434;47.990;7.880;2023-02-01T12:29:49;7.40;;;3.00;;
16640;SDS011;8434;47.990;7.880;2023-02-01T12:32:45;5.30;;;3.00;;
16640;SDS011;8434;47.990;7.880;2023-02-01T12:35:38;7.03;;;3.03;;
16640;SDS011;8434;47.990;7.880;2023-02-01T12:38:36;7.20;;;3.40;;
16640;SDS011;8434;47.990;7.880;2023-02-01T12:41:40;7.50;;;2.97;;
16640;SDS011;8434;47.990;7.880;2023-02-01T12:44:34;7.60;;;3.23;;
16640;SDS011;8434;47.990;7.880;2023-02-01T12:47:20;7.20;;;3.37;;
16640;SDS011;8434;47.990;7.880;2023-02-01T12:52:58;12.73;;;3.23;;
16640;SDS011;8434;47.990;7.880;2023-02-01T12:55:46;9.30;;;2.97;;
16640;SDS011;8434;47.990;7.880;2023-02-01T12:58:38;6.87;;;3.43;;
16640;SDS011;8434;47.990;7.880;2023-02-01T13:01:25;10.53;;;3.33;;
16640;SDS011;8434;47.990;7.880;2023-02-01T13:04:14;9.43;;;3.30;;
16640;SDS011;8434;47.990;7.880;2023-02-01T13:07:04;14.10;;;3.67;;
16640;SDS011;8434;47.990;7.880;2023-02-01T13:09:51;9.50;;;3.57;;
16640;SDS011;8434;47.990;7.880;2023-02-01T13:12:38;9.30;;;3.03;;
16640;SDS011;8434;47.990;7.880;2023-02-01T13:15:27;10.43;;;4.07;;
16640;SDS011;8434;47.990;7.880;2023-02-01T13:18:14;8.27;;;2.93;;
16640;SDS011;8434;47.990;7.880;2023-02-01T13:21:02;9.03;;;3.37;;
16640;SDS011;8434;47.990;7.880;2023-02-01T13:23:48;8.30;;;3.23;;
16640;SDS011;8434;47.990;7.880;2023-02-01T13:26:33;11.57;;;3.10;;
16640;SDS011;8434;47.990;7.880;2023-02-01T13:29:18;10.37;;;3.43;;
16640;SDS011;8434;47.990;7.880;2023-02-01T13:32:09;6.73;;;3.23;;
16640;SDS011;8434;47.990;7.880;2023-02-01T13:37:59;8.50;;;3.23;;
16640;SDS011;8434;47.990;7.880;2023-02-01T13:40:48;8.13;;;3.30;;
16640;SDS011;8434;47.990;7.880;2023-02-01T13:43:37;6.03;;;3.07;;
16640;SDS011;8434;47.990;7.880;2023-02-01T13:46:25;8.30;;;2.73;;
16640;SDS011;8434;47.990;7.880;2023-02-01T13:49:18;10.00;;;3.00;;
16640;SDS011;8434;47.990;7.880;2023-02-01T13:52:04;9.90;;;3.20;;
16640;SDS011;8434;47.990;7.880;2023-02-01T13:54:49;6.67;;;2.90;;
16640;SDS011;8434;47.990;7.880;2023-02-01T13:57:45;11.67;;;2.60;;
16640;SDS011;8434;47.990;7.880;2023-02-01T14:00:32;7.90;;;3.30;;
16640;SDS011;8434;47.990;7.880;2023-02-01T14:03:18;6.80;;;3.33;;
16640;SDS011;8434;47.990;7.880;2023-02-01T14:06:32;8.17;;;2.67;;
16640;SDS011;8434;47.990;7.880;2023-02-01T14:09:30;4.50;;;2.67;;
16640;SDS011;8434;47.990;7.880;2023-02-01T14:15:18;10.57;;;3.13;;
16640;SDS011;8434;47.990;7.880;2023-02-01T14:18:15;11.37;;;3.23;;
16640;SDS011;8434;47.990;7.880;2023-02-01T14:21:22;10.20;;;3.40;;
16640;SDS011;8434;47.990;7.880;2023-02-01T14:24:14;12.80;;;3.30;;
16640;SDS011;8434;47.990;7.880;2023-02-01T14:27:02;11.40;;;3.60;;
16640;SDS011;8434;47.990;7.880;2023-02-01T14:29:50;7.70;;;2.97;;
16640;SDS011;8434;47.990;7.880;2023-02-01T14:32:38;8.50;;;2.90;;
16640;SDS011;8434;47.990;7.880;2023-02-01T14:35:25;8.47;;;2.97;;
16640;SDS011;8434;47.990;7.880;2023-02-01T14:38:13;13.73;;;4.03;;
16640;SDS011;8434;47.990;7.880;2023-02-01T14:41:10;7.70;;;2.70;;
16640;SDS011;8434;47.990;7.880;2023-02-01T14:53:20;7.23;;;2.50;;
16640;SDS011;8434;47.990;7.880;2023-02-01T14:56:08;9.47;;;2.50;;
16640;SDS011;8434;47.990;7.880;2023-02-01T14:58:56;7.53;;;3.13;;
16640;SDS011;8434;47.990;7.880;2023-02-01T15:01:46;10.50;;;2.93;;
16640;SDS011;8434;47.990;7.880;2023-02-01T15:04:40;10.47;;;3.33;;
16640;SDS011;8434;47.990;7.880;2023-02-01T15:07:26;8.53;;;3.17;;
16640;SDS011;8434;47.990;7.880;2023-02-01T15:10:13;8.50;;;2.97;;
16640;SDS011;8434;47.990;7.880;2023-02-01T15:13:00;14.47;;;2.77;;
16640;SDS011;8434;47.990;7.880;2023-02-01T15:15:45;9.53;;;2.87;;
16640;SDS011;8434;47.990;7.880;2023-02-01T15:18:43;7.23;;;3.33;;
16640;SDS011;8434;47.990;7.880;2023-02-01T15:21:29;10.37;;;3.17;;
16640;SDS011;8434;47.990;7.880;2023-02-01T15:24:17;11.37;;;2.90;;
16640;SDS011;8434;47.990;7.880;2023-02-01T15:27:04;11.93;;;2.90;;
16640;SDS011;8434;47.990;7.880;2023-02-01T15:29:51;7.07;;;3.20;;
16640;SDS011;8434;47.990;7.880;2023-02-01T15:32:37;12.47;;;3.53;;
16640;SDS011;8434;47.990;7.880;2023-02-01T15:35:33;9.47;;;2.90;;
16640;SDS011;8434;47.990;7.880;2023-02-01T15:38:33;6.57;;;3.07;;
16640;SDS011;8434;47.990;7.880;2023-02-01T15:41:19;8.27;;;3.10;;
16640;SDS011;8434;47.990;7.880;2023-02-01T15:44:07;9.73;;;2.73;;
16640;SDS011;8434;47.990;7.880;2023-02-01T15:46:56;9.63;;;3.27;;
16640;SDS011;8434;47.990;7.880;2023-02-01T15:49:41;8.43;;;3.70;;
16640;SDS011;8434;47.990;7.880;2023-02-01T15:52:31;14.00;;;3.77;;
16640;SDS011;8434;47.990;7.880;2023-02-01T15:55:18;7.30;;;2.60;;
16640;SDS011;8434;47.990;7.880;2023-02-01T15:58:04;11.63;;;3.10;;
16640;SDS011;8434;47.990;7.880;2023-02-01T16:00:51;13.13;;;3.73;;
16640;SDS011;8434;47.990;7.880;2023-02-01T16:03:39;11.97;;;4.10;;
16640;SDS011;8434;47.990;7.880;2023-02-01T16:06:31;9.73;;;3.03;;
16640;SDS011;8434;47.990;7.880;2023-02-01T16:09:19;10.70;;;2.87;;
16640;SDS011;8434;47.990;7.880;2023-02-01T16:12:19;8.23;;;2.87;;
16640;SDS011;8434;47.990;7.880;2023-02-01T16:15:08;8.00;;;2.93;;
16640;SDS011;8434;47.990;7.880;2023-02-01T16:17:53;10.27;;;3.67;;
16640;SDS011;8434;47.990;7.880;2023-02-01T16:20:40;11.03;;;3.03;;
16640;SDS011;8434;47.990;7.880;2023-02-01T16:23:25;11.70;;;2.93;;
16640;SDS011;8434;47.990;7.880;2023-02-01T16:26:11;9.90;;;3.00;;
16640;SDS011;8434;47.990;7.880;2023-02-01T16:28:56;11.83;;;3.10;;
16640;SDS011;8434;47.990;7.880;2023-02-01T16:31:41;8.67;;;3.07;;
16640;SDS011;8434;47.990;7.880;2023-02-01T16:34:26;7.67;;;2.80;;
16640;SDS011;8434;47.990;7.880;2023-02-01T16:37:14;4.97;;;2.50;;
16640;SDS011;8434;47.990;7.880;2023-02-01T16:40:00;12.67;;;3.40;;
16640;SDS011;8434;47.990;7.880;2023-02-01T16:42:46;10.80;;;2.97;;
16640;SDS011;8434;47.990;7.880;2023-02-01T16:45:32;10.47;;;2.43;;
16640;SDS011;8434;47.990;7.880;2023-02-01T16:48:18;16.03;;;3.23;;
16640;SDS011;8434;47.990;7.880;2023-02-01T16:51:07;5.73;;;2.60;;
16640;SDS011;8434;47.990;7.880;2023-02-01T16:53:54;5.23;;;2.80;;
16640;SDS011;8434;47.990;7.880;2023-02-01T16:56:39;8.53;;;3.33;;
16640;SDS011;8434;47.990;7.880;2023-02-01T16:59:26;12.03;;;3.17;;
16640;SDS011;8434;47.990;7.880;2023-02-01T17:02:12;11.37;;;2.70;;
16640;SDS011;8434;47.990;7.880;2023-02-01T17:04:58;5.30;;;2.13;;
16640;SDS011;8434;47.990;7.880;2023-02-01T17:07:43;6.90;;;2.67;;
16640;SDS011;8434;47.990;7.880;2023-02-01T17:10:29;7.23;;;2.53;;
16640;SDS011;8434;47.990;7.880;2023-02-01T17:13:15;9.50;;;3.47;;
16640;SDS011;8434;47.990;7.880;2023-02-01T17:16:01;8.63;;;2.10;;
16640;SDS011;8434;47.990;7.880;2023-02-01T17:18:47;7.90;;;2.53;;
16640;SDS011;8434;47.990;7.880;2023-02-01T17:21:36;7.17;;;2.40;;
16640;SDS011;8434;47.990;7.880;2023-02-01T17:24:24;5.73;;;2.30;;
16640;SDS011;8434;47.990;7.880;2023-02-01T17:27:11;7.63;;;2.57;;
16640;SDS011;8434;47.990;7.880;2023-02-01T17:29:56;10.73;;;2.50;;
16640;SDS011;8434;47.990;7.880;2023-02-01T17:32:41;6.77;;;3.20;;
16640;SDS011;8434;47.990;7.880;2023-02-01T17:35:29;6.53;;;2.33;;
16640;SDS011;8434;47.990;7.880;2023-02-01T17:38:15;8.97;;;2.53;;
16640;SDS011;8434;47.990;7.880;2023-02-01T17:41:00;8.50;;;2.77;;